Terminal Aerodrome Forecast
Issued by NWS

Home | Current Version | Previous Version | Text Only | Print | Product List | Glossary On
Versions: 1 2 3 4 5 6 7 8 9 10 11 12 13 14 15
906
FTUS42 KMLB 131720
TAFFPR
TAF
KFPR 131720Z 1318/1418 36008KT P6SM SKC
     FM131900 35009G15KT P6SM SKC
     FM140000 01006KT P6SM SKC
     FM141100 04004KT P6SM FEW035
     FM141400 07008KT P6SM BKN035=

USA.gov is the U.S. government's official web portal to all federal, state and local government web resources and services.